createdAt,value
2019-04-27T00:01:11.516Z,10.90
2019-04-27T00:03:48.821Z,12.03
2019-04-27T00:06:18.091Z,11.12
2019-04-27T00:08:53.610Z,10.72
2019-04-27T00:11:27.185Z,10.55
2019-04-27T00:13:56.853Z,10.85
2019-04-27T00:16:46.885Z,11.25
2019-04-27T00:19:39.723Z,11.70
2019-04-27T00:22:28.128Z,10.80
2019-04-27T00:24:57.501Z,11.40
2019-04-27T00:27:26.873Z,10.80
2019-04-27T00:29:56.320Z,11.15
2019-04-27T00:32:25.648Z,10.35
2019-04-27T00:34:55.697Z,13.62
2019-04-27T00:37:53.356Z,11.85
2019-04-27T00:40:35.655Z,12.23
2019-04-27T00:43:04.971Z,11.08
2019-04-27T00:45:34.355Z,13.05
2019-04-27T00:48:03.716Z,12.45
2019-04-27T00:50:33.875Z,11.22
2019-04-27T00:53:03.952Z,12.35
2019-04-27T00:55:35.292Z,9.65
2019-04-27T00:58:23.094Z,12.75
2019-04-27T01:01:04.770Z,12.65
2019-04-27T01:03:42.980Z,11.45
2019-04-27T01:06:13.059Z,10.90
2019-04-27T01:08:44.990Z,11.75
2019-04-27T01:11:14.761Z,11.88
2019-04-27T01:13:44.150Z,12.20
2019-04-27T01:16:17.406Z,13.72
2019-04-27T01:18:44.475Z,11.45
2019-04-27T01:21:13.834Z,11.63
2019-04-27T01:23:43.506Z,12.03
2019-04-27T01:26:34.910Z,10.82
2019-04-27T01:29:10.249Z,11.93
2019-04-27T01:31:39.807Z,12.85
2019-04-27T01:34:09.319Z,16.05
2019-04-27T01:36:39.268Z,13.35
2019-04-27T01:39:12.780Z,16.25
2019-04-27T01:41:42.026Z,14.00
2019-04-27T01:44:11.360Z,13.10
2019-04-27T01:46:40.674Z,12.90
2019-04-27T01:49:10.227Z,11.90
2019-04-27T01:51:39.594Z,11.18
2019-04-27T01:54:11.207Z,12.50
2019-04-27T01:56:40.595Z,9.85
2019-04-27T01:59:09.937Z,10.65
2019-04-27T02:01:52.369Z,10.25
2019-04-27T02:04:30.485Z,10.60
2019-04-27T02:07:01.101Z,9.98
2019-04-27T02:09:30.439Z,9.33
2019-04-27T02:11:59.904Z,10.10
2019-04-27T02:14:29.434Z,10.15
2019-04-27T02:16:59.545Z,11.25
2019-04-27T02:19:30.088Z,8.05
2019-04-27T02:22:00.742Z,10.10
2019-04-27T02:24:30.122Z,9.40
2019-04-27T02:26:59.470Z,9.70
2019-04-27T02:29:56.731Z,8.68
2019-04-27T02:32:34.185Z,8.43
2019-04-27T02:35:05.814Z,9.43
2019-04-27T02:37:35.253Z,8.43
2019-04-27T02:40:12.918Z,9.43
2019-04-27T02:42:44.440Z,9.15
2019-04-27T02:45:13.762Z,9.60
2019-04-27T02:47:43.105Z,10.48
2019-04-27T02:50:12.534Z,9.88
2019-04-27T02:52:49.813Z,8.80
2019-04-27T02:55:19.715Z,8.55
2019-04-27T02:57:50.062Z,8.58
2019-04-27T03:00:20.538Z,9.48
2019-04-27T03:02:55.120Z,8.33
2019-04-27T03:05:29.654Z,9.33
2019-04-27T03:07:59.937Z,8.93
2019-04-27T03:10:32.387Z,9.10
2019-04-27T03:13:26.515Z,9.43
2019-04-27T03:16:14.846Z,8.50
2019-04-27T03:19:10.303Z,11.75
2019-04-27T03:21:29.709Z,10.88
2019-04-27T03:24:00.230Z,10.15
2019-04-27T03:26:50.112Z,8.35
2019-04-27T03:29:20.215Z,8.90
2019-04-27T03:31:54.162Z,7.62
2019-04-27T03:34:22.504Z,8.53
2019-04-27T03:36:52.145Z,7.28
2019-04-27T03:39:21.610Z,8.48
2019-04-27T03:41:52.906Z,7.30
2019-04-27T03:44:22.089Z,6.85
2019-04-27T03:46:51.421Z,7.90
2019-04-27T03:49:34.388Z,7.55
2019-04-27T03:52:00.277Z,8.88
2019-04-27T03:54:50.137Z,7.53
2019-04-27T03:57:40.517Z,9.10
2019-04-27T04:00:21.148Z,8.43
2019-04-27T04:02:50.468Z,7.53
2019-04-27T04:05:19.992Z,8.25
2019-04-27T04:07:50.528Z,8.90
2019-04-27T04:10:20.212Z,8.03
2019-04-27T04:13:10.785Z,6.45
2019-04-27T04:16:10.524Z,6.78
2019-04-27T04:19:02.099Z,5.92
2019-04-27T04:21:31.566Z,6.58
2019-04-27T04:24:01.477Z,7.60
2019-04-27T04:26:32.787Z,6.47
2019-04-27T04:29:02.341Z,7.95
2019-04-27T04:31:33.133Z,6.80
2019-04-27T04:34:02.894Z,7.08
2019-04-27T04:36:32.294Z,6.45
2019-04-27T04:39:01.724Z,5.60
2019-04-27T04:41:52.883Z,5.15
2019-04-27T04:44:44.216Z,5.70
2019-04-27T04:47:22.302Z,5.50
2019-04-27T04:50:07.590Z,6.20
2019-04-27T04:52:24.640Z,6.50
2019-04-27T04:54:53.964Z,5.47
2019-04-27T04:57:23.199Z,6.67
2019-04-27T04:59:52.522Z,6.10
2019-04-27T05:02:21.854Z,5.62
2019-04-27T05:04:51.160Z,5.72
2019-04-27T05:07:20.507Z,6.37
2019-04-27T05:09:49.909Z,6.40
2019-04-27T05:12:19.341Z,6.00
2019-04-27T05:14:49.042Z,6.95
2019-04-27T05:17:19.635Z,6.15
2019-04-27T05:19:50.627Z,8.05
2019-04-27T05:22:19.894Z,8.30
2019-04-27T05:25:00.674Z,7.37
2019-04-27T05:27:31.586Z,6.25
2019-04-27T05:30:01.610Z,7.40
2019-04-27T05:32:31.060Z,8.90
2019-04-27T05:35:00.447Z,8.28
2019-04-27T05:37:31.594Z,8.20
2019-04-27T05:40:00.781Z,7.53
2019-04-27T05:42:30.061Z,6.72
2019-04-27T05:45:20.016Z,8.50
2019-04-27T05:47:53.844Z,7.35
2019-04-27T05:50:35.329Z,7.78
2019-04-27T05:52:55.671Z,8.55
2019-04-27T05:55:25.018Z,8.48
2019-04-27T05:57:54.332Z,7.37
2019-04-27T06:00:24.045Z,6.40
2019-04-27T06:02:56.254Z,7.33
2019-04-27T06:05:25.525Z,7.70
2019-04-27T06:07:54.966Z,7.15
2019-04-27T06:10:24.407Z,6.72
2019-04-27T06:12:53.908Z,5.65
2019-04-27T06:15:23.180Z,6.25
2019-04-27T06:17:52.608Z,5.78
2019-04-27T06:20:21.906Z,5.10
2019-04-27T06:22:51.287Z,5.20
2019-04-27T06:25:21.763Z,4.75
2019-04-27T06:27:51.236Z,3.70
2019-04-27T06:30:20.717Z,3.45
2019-04-27T06:32:51.205Z,3.42
2019-04-27T06:35:20.656Z,3.30
2019-04-27T06:37:50.359Z,4.05
2019-04-27T06:40:19.779Z,4.67
2019-04-27T06:42:49.086Z,3.70
2019-04-27T06:45:19.702Z,3.17
2019-04-27T06:47:51.257Z,2.65
2019-04-27T06:50:20.398Z,2.83
2019-04-27T06:52:49.795Z,2.67
2019-04-27T06:55:19.121Z,2.50
2019-04-27T06:57:49.109Z,2.42
2019-04-27T07:00:19.100Z,2.12
2019-04-27T07:02:49.259Z,1.55
2019-04-27T07:05:20.495Z,2.22
2019-04-27T07:07:49.939Z,2.30
2019-04-27T07:10:19.397Z,2.33
2019-04-27T07:12:49.185Z,2.08
2019-04-27T07:15:20.560Z,2.58
2019-04-27T07:17:50.030Z,1.80
2019-04-27T07:20:19.555Z,2.07
2019-04-27T07:22:49.628Z,2.10
2019-04-27T07:25:19.047Z,2.30
2019-04-27T07:27:49.337Z,1.53
2019-04-27T07:30:19.200Z,1.97
2019-04-27T07:32:52.066Z,1.30
2019-04-27T07:35:21.398Z,1.60
2019-04-27T07:37:50.965Z,1.47
2019-04-27T07:40:20.397Z,1.40
2019-04-27T07:42:53.027Z,1.40
2019-04-27T07:45:29.744Z,1.43
2019-04-27T07:47:59.223Z,1.60
2019-04-27T07:50:29.039Z,1.80
2019-04-27T07:52:58.835Z,1.73
2019-04-27T07:55:28.793Z,1.43
2019-04-27T07:57:59.513Z,1.77
2019-04-27T08:00:29.414Z,1.80
2019-04-27T08:02:58.804Z,2.43
2019-04-27T08:05:29.166Z,2.30
2019-04-27T08:08:00.232Z,2.17
2019-04-27T08:10:29.773Z,1.97
2019-04-27T08:12:59.708Z,1.93
2019-04-27T08:15:29.576Z,1.60
2019-04-27T08:17:59.559Z,2.40
2019-04-27T08:20:29.502Z,3.00
2019-04-27T08:22:59.881Z,5.23
2019-04-27T08:25:30.761Z,4.47
2019-04-27T08:28:18.772Z,1.70
2019-04-27T08:31:04.574Z,2.20
2019-04-27T08:33:36.907Z,1.90
2019-04-27T08:36:06.356Z,2.33
2019-04-27T08:38:35.760Z,1.50
2019-04-27T08:41:05.352Z,1.70
2019-04-27T08:43:38.847Z,2.47
2019-04-27T08:46:08.808Z,1.57
2019-04-27T08:48:39.281Z,1.80
2019-04-27T08:51:09.565Z,1.67
2019-04-27T08:53:39.886Z,1.83
2019-04-27T08:56:09.715Z,1.60
2019-04-27T08:58:39.439Z,1.80
2019-04-27T09:01:10.365Z,1.60
2019-04-27T09:03:40.048Z,1.27
2019-04-27T09:06:11.085Z,1.70
2019-04-27T09:08:59.290Z,1.60
2019-04-27T09:11:41.820Z,1.80
2019-04-27T09:14:25.006Z,1.73
2019-04-27T09:17:05.148Z,1.80
2019-04-27T09:19:53.728Z,2.40
2019-04-27T09:22:23.357Z,1.60
2019-04-27T09:24:53.107Z,3.70
2019-04-27T09:27:22.964Z,1.60
2019-04-27T09:29:52.722Z,1.63
2019-04-27T09:32:22.303Z,1.70
2019-04-27T09:34:51.815Z,1.57
2019-04-27T09:37:21.345Z,1.37
2019-04-27T09:39:50.722Z,1.53
2019-04-27T09:42:20.068Z,1.70
2019-04-27T09:44:49.544Z,2.87
2019-04-27T09:47:18.891Z,2.43
2019-04-27T09:49:48.167Z,2.70
2019-04-27T09:52:24.457Z,2.00
2019-04-27T09:54:48.773Z,2.00
2019-04-27T09:57:18.226Z,2.17
2019-04-27T09:59:47.594Z,1.70
2019-04-27T10:02:16.922Z,2.40
2019-04-27T10:04:46.486Z,1.93
2019-04-27T10:07:16.538Z,1.90
2019-04-27T10:09:47.486Z,2.00
2019-04-27T10:12:17.292Z,1.70
2019-04-27T10:14:47.722Z,1.70
2019-04-27T10:17:17.295Z,1.20
2019-04-27T10:19:46.720Z,2.30
2019-04-27T10:22:18.189Z,1.50
2019-04-27T10:24:47.653Z,2.40
2019-04-27T10:27:17.121Z,2.00
2019-04-27T10:29:48.431Z,1.50
2019-04-27T10:32:17.824Z,1.87
2019-04-27T10:34:47.224Z,1.50
2019-04-27T10:37:16.676Z,1.60
2019-04-27T10:39:46.187Z,2.50
2019-04-27T10:42:15.762Z,2.20
2019-04-27T10:44:46.219Z,2.33
2019-04-27T10:47:16.442Z,2.27
2019-04-27T10:49:46.557Z,3.17
2019-04-27T10:52:17.099Z,2.47
2019-04-27T10:54:46.783Z,2.20
2019-04-27T10:57:16.526Z,2.30
2019-04-27T10:59:46.226Z,1.90
2019-04-27T11:02:15.814Z,2.20
2019-04-27T11:05:00.307Z,2.07
2019-04-27T11:07:33.456Z,3.63
2019-04-27T11:10:05.607Z,2.00
2019-04-27T11:12:35.669Z,2.60
2019-04-27T11:15:07.749Z,2.33
2019-04-27T11:17:37.481Z,2.37
2019-04-27T11:20:07.531Z,2.60
2019-04-27T11:22:38.246Z,2.50
2019-04-27T11:25:08.179Z,2.80
2019-04-27T11:27:37.676Z,2.40
2019-04-27T11:30:08.594Z,2.30
2019-04-27T11:32:38.198Z,2.20
2019-04-27T11:35:36.685Z,2.83
2019-04-27T11:38:06.807Z,3.13
2019-04-27T11:40:36.461Z,2.80
2019-04-27T11:43:07.701Z,2.30
2019-04-27T11:45:37.232Z,2.20
2019-04-27T11:48:06.465Z,2.10
2019-04-27T11:50:35.924Z,1.90
2019-04-27T11:53:06.185Z,2.27
2019-04-27T11:55:35.952Z,2.67
2019-04-27T11:58:06.551Z,2.40
2019-04-27T12:00:36.507Z,2.20
2019-04-27T12:03:06.774Z,2.00
2019-04-27T12:05:36.601Z,2.33
2019-04-27T12:08:06.339Z,1.87
2019-04-27T12:10:36.314Z,2.10
2019-04-27T12:13:07.594Z,2.40
2019-04-27T12:15:59.381Z,2.10
2019-04-27T12:18:36.555Z,2.60
2019-04-27T12:21:14.102Z,2.20
2019-04-27T12:23:44.527Z,2.00
2019-04-27T12:26:31.924Z,2.60
2019-04-27T12:29:03.234Z,2.17
2019-04-27T12:31:35.880Z,1.63
2019-04-27T12:34:07.219Z,1.87
2019-04-27T12:36:37.657Z,1.63
2019-04-27T12:39:12.979Z,2.00
2019-04-27T12:41:42.869Z,1.87
2019-04-27T12:44:12.599Z,1.63
2019-04-27T12:46:42.807Z,1.83
2019-04-27T12:49:13.119Z,1.93
2019-04-27T12:51:51.071Z,1.07
2019-04-27T12:54:42.828Z,1.30
2019-04-27T12:57:21.119Z,2.00
2019-04-27T13:00:12.833Z,1.70
2019-04-27T13:02:42.877Z,1.27
2019-04-27T13:05:12.877Z,1.20
2019-04-27T13:07:45.694Z,1.20
2019-04-27T13:10:15.970Z,1.23
2019-04-27T13:12:46.274Z,0.83
2019-04-27T13:15:18.777Z,1.10
2019-04-27T13:17:51.897Z,1.00
2019-04-27T13:20:21.659Z,1.00
2019-04-27T13:22:51.532Z,0.90
2019-04-27T13:25:21.532Z,1.50
2019-04-27T13:27:51.488Z,0.90
2019-04-27T13:30:21.613Z,1.03
2019-04-27T13:32:51.383Z,1.23
2019-04-27T13:35:25.843Z,1.00
2019-04-27T13:37:55.933Z,1.03
2019-04-27T13:40:26.622Z,0.90
2019-04-27T13:43:13.905Z,1.10
2019-04-27T13:46:08.219Z,0.90
2019-04-27T13:48:56.969Z,1.27
2019-04-27T13:51:41.973Z,1.60
2019-04-27T13:54:21.421Z,1.43
2019-04-27T13:56:42.395Z,1.23
2019-04-27T13:59:12.940Z,1.50
2019-04-27T14:01:42.776Z,2.03
2019-04-27T14:04:13.845Z,1.57
2019-04-27T14:06:43.496Z,1.70
2019-04-27T14:09:12.928Z,2.00
2019-04-27T14:11:42.319Z,1.70
2019-04-27T14:14:12.300Z,1.25
2019-04-27T14:16:43.806Z,1.10
2019-04-27T14:19:12.877Z,1.15
2019-04-27T14:21:42.537Z,1.10
2019-04-27T14:24:11.974Z,1.40
2019-04-27T14:26:41.516Z,0.93
2019-04-27T14:29:11.105Z,1.50
2019-04-27T14:31:40.537Z,1.02
2019-04-27T14:34:09.860Z,1.07
2019-04-27T14:36:40.633Z,1.25
2019-04-27T14:39:12.558Z,0.80
2019-04-27T14:41:42.087Z,0.70
2019-04-27T14:44:11.733Z,1.25
2019-04-27T14:46:41.121Z,1.20
2019-04-27T14:49:10.532Z,1.80
2019-04-27T14:51:40.256Z,1.25
2019-04-27T14:54:09.942Z,1.20
2019-04-27T14:56:39.376Z,1.10
2019-04-27T14:59:08.771Z,1.27
2019-04-27T15:01:42.051Z,1.30
2019-04-27T15:04:11.622Z,1.12
2019-04-27T15:06:41.330Z,1.05
2019-04-27T15:09:13.406Z,1.47
2019-04-27T15:11:42.347Z,1.82
2019-04-27T15:14:11.712Z,1.80
2019-04-27T15:16:42.610Z,1.80
2019-04-27T15:19:19.323Z,1.30
2019-04-27T15:21:56.457Z,1.70
2019-04-27T15:24:20.688Z,1.80
2019-04-27T15:26:54.262Z,1.47
2019-04-27T15:29:25.174Z,1.95
2019-04-27T15:32:01.354Z,1.92
2019-04-27T15:34:48.120Z,1.87
2019-04-27T15:37:39.362Z,1.52
2019-04-27T15:40:28.759Z,1.62
2019-04-27T15:43:01.428Z,2.47
2019-04-27T15:45:31.144Z,2.00
2019-04-27T15:48:00.589Z,2.80
2019-04-27T15:50:32.241Z,2.22
2019-04-27T15:53:03.021Z,3.25
2019-04-27T15:55:36.913Z,2.22
2019-04-27T15:58:03.694Z,2.05
2019-04-27T16:00:33.464Z,1.42
2019-04-27T16:03:02.843Z,1.62
2019-04-27T16:05:35.786Z,2.65
2019-04-27T16:08:06.252Z,1.50
2019-04-27T16:10:37.295Z,2.10
2019-04-27T16:13:07.433Z,1.65
2019-04-27T16:15:38.392Z,2.52
2019-04-27T16:18:08.806Z,1.60
2019-04-27T16:20:38.827Z,1.70
2019-04-27T16:23:08.837Z,2.60
2019-04-27T16:25:48.501Z,1.65
2019-04-27T16:28:13.368Z,1.82
2019-04-27T16:30:45.684Z,2.37
2019-04-27T16:33:15.434Z,1.65
2019-04-27T16:35:45.320Z,1.85
2019-04-27T16:38:36.536Z,2.10
2019-04-27T16:41:06.018Z,1.90
2019-04-27T16:43:35.415Z,2.10
2019-04-27T16:46:08.897Z,3.17
2019-04-27T16:48:39.092Z,2.40
2019-04-27T16:51:10.566Z,2.30
2019-04-27T16:53:41.258Z,2.45
2019-04-27T16:56:14.982Z,2.05
2019-04-27T16:58:42.401Z,1.82
2019-04-27T17:01:32.943Z,1.67
2019-04-27T17:04:06.352Z,2.60
2019-04-27T17:06:34.265Z,2.15
2019-04-27T17:09:07.384Z,2.40
2019-04-27T17:11:38.780Z,2.25
2019-04-27T17:14:34.909Z,2.37
2019-04-27T17:17:20.629Z,2.42
2019-04-27T17:19:53.416Z,2.72
2019-04-27T17:22:22.949Z,3.05
2019-04-27T17:24:52.890Z,2.77
2019-04-27T17:27:31.820Z,3.17
2019-04-27T17:30:01.954Z,3.15
2019-04-27T17:32:55.709Z,2.83
2019-04-27T17:35:25.670Z,3.00
2019-04-27T17:37:55.472Z,2.87
2019-04-27T17:40:25.299Z,3.40
2019-04-27T17:42:54.930Z,2.95
2019-04-27T17:45:24.811Z,2.30
2019-04-27T17:47:54.612Z,2.10
2019-04-27T17:50:25.397Z,1.85
2019-04-27T17:52:57.416Z,1.90
2019-04-27T17:55:27.912Z,2.05
2019-04-27T17:58:04.981Z,1.52
2019-04-27T18:00:32.929Z,1.52
2019-04-27T18:03:03.640Z,1.75
2019-04-27T18:05:33.209Z,2.02
2019-04-27T18:08:02.584Z,1.42
2019-04-27T18:10:32.486Z,1.30
2019-04-27T18:13:01.837Z,1.82
2019-04-27T18:15:31.637Z,2.15
2019-04-27T18:18:05.692Z,1.80
2019-04-27T18:20:35.456Z,2.17
2019-04-27T18:23:15.089Z,2.37
2019-04-27T18:25:48.050Z,2.65
2019-04-27T18:28:21.426Z,3.08
2019-04-27T18:31:02.830Z,3.25
2019-04-27T18:33:36.677Z,3.80
2019-04-27T18:36:06.762Z,4.05
2019-04-27T18:38:36.766Z,3.90
2019-04-27T18:41:07.906Z,4.70
2019-04-27T18:43:38.572Z,5.40
2019-04-27T18:46:09.094Z,5.22
2019-04-27T18:49:00.789Z,6.70
2019-04-27T18:51:52.396Z,6.55
2019-04-27T18:54:23.932Z,5.72
2019-04-27T18:57:01.922Z,3.62
2019-04-27T18:59:25.005Z,3.35
2019-04-27T19:01:54.870Z,2.80
2019-04-27T19:04:24.465Z,3.33
2019-04-27T19:06:54.289Z,3.50
2019-04-27T19:09:23.931Z,3.40
2019-04-27T19:11:56.596Z,3.12
2019-04-27T19:14:25.043Z,3.40
2019-04-27T19:16:54.680Z,2.52
2019-04-27T19:19:24.341Z,2.52
2019-04-27T19:21:54.261Z,2.58
2019-04-27T19:24:23.822Z,1.95
2019-04-27T19:27:01.633Z,2.00
2019-04-27T19:29:35.098Z,2.00
2019-04-27T19:32:04.487Z,2.35
2019-04-27T19:34:34.096Z,2.83
2019-04-27T19:37:22.552Z,2.70
2019-04-27T19:39:52.026Z,2.27
2019-04-27T19:42:21.509Z,1.90
2019-04-27T19:44:50.929Z,2.35
2019-04-27T19:47:20.457Z,2.62
2019-04-27T19:49:49.900Z,1.87
2019-04-27T19:52:22.420Z,2.25
2019-04-27T19:54:50.544Z,1.75
2019-04-27T19:57:31.990Z,2.02
2019-04-27T19:59:54.918Z,2.05
2019-04-27T20:02:24.441Z,1.70
2019-04-27T20:05:05.632Z,1.87
2019-04-27T20:07:35.679Z,1.22
2019-04-27T20:10:08.791Z,2.30
2019-04-27T20:12:38.334Z,2.05
2019-04-27T20:15:08.289Z,1.35
2019-04-27T20:17:37.678Z,1.70
2019-04-27T20:20:07.511Z,1.35
2019-04-27T20:22:37.127Z,1.10
2019-04-27T20:25:07.275Z,1.42
2019-04-27T20:27:46.035Z,1.60
2019-04-27T20:30:11.093Z,1.92
2019-04-27T20:32:40.677Z,1.47
2019-04-27T20:35:11.798Z,1.40
2019-04-27T20:37:41.600Z,3.98
2019-04-27T20:40:12.414Z,1.37
2019-04-27T20:42:41.796Z,2.10
2019-04-27T20:45:12.007Z,2.00
2019-04-27T20:47:41.768Z,1.85
2019-04-27T20:50:11.246Z,1.65
2019-04-27T20:52:59.570Z,1.98
2019-04-27T20:55:29.278Z,1.67
2019-04-27T20:58:02.359Z,1.50
2019-04-27T21:00:31.870Z,1.72
2019-04-27T21:03:16.400Z,1.95
2019-04-27T21:06:04.743Z,2.33
2019-04-27T21:08:35.728Z,1.98
2019-04-27T21:11:05.458Z,2.02
2019-04-27T21:13:34.862Z,2.17
2019-04-27T21:16:04.399Z,2.20
2019-04-27T21:18:33.704Z,1.85
2019-04-27T21:21:03.129Z,2.95
2019-04-27T21:23:32.553Z,1.52
2019-04-27T21:26:02.223Z,1.47
2019-04-27T21:28:32.235Z,1.72
2019-04-27T21:31:01.577Z,1.75
2019-04-27T21:33:31.817Z,2.33
2019-04-27T21:36:01.442Z,2.60
2019-04-27T21:38:30.927Z,1.75
2019-04-27T21:41:00.471Z,3.15
2019-04-27T21:43:29.878Z,2.70
2019-04-27T21:45:59.291Z,2.47
2019-04-27T21:48:28.522Z,1.85
2019-04-27T21:50:58.096Z,1.98
2019-04-27T21:53:52.382Z,2.15
2019-04-27T21:56:21.693Z,3.20
2019-04-27T21:58:51.301Z,3.33
2019-04-27T22:01:31.667Z,1.85
2019-04-27T22:04:01.132Z,3.15
2019-04-27T22:06:30.753Z,3.02
2019-04-27T22:09:01.322Z,3.10
2019-04-27T22:11:31.931Z,3.72
2019-04-27T22:14:01.522Z,5.58
2019-04-27T22:16:31.493Z,5.05
2019-04-27T22:19:01.938Z,3.60
2019-04-27T22:21:31.747Z,4.15
2019-04-27T22:24:24.093Z,3.92
2019-04-27T22:26:53.469Z,5.00
2019-04-27T22:29:22.821Z,5.20
2019-04-27T22:31:52.264Z,4.75
2019-04-27T22:34:22.299Z,5.08
2019-04-27T22:36:51.641Z,4.53
2019-04-27T22:39:36.503Z,4.75
2019-04-27T22:42:31.354Z,4.55
2019-04-27T22:45:07.794Z,4.17
2019-04-27T22:47:37.103Z,5.33
2019-04-27T22:50:06.619Z,5.30
2019-04-27T22:52:36.062Z,4.87
2019-04-27T22:55:05.919Z,4.70
2019-04-27T22:57:52.988Z,4.58
2019-04-27T23:00:51.273Z,4.25
2019-04-27T23:03:27.476Z,4.65
2019-04-27T23:05:56.939Z,3.85
2019-04-27T23:08:26.442Z,4.65
2019-04-27T23:10:56.303Z,4.62
2019-04-27T23:13:25.687Z,4.42
2019-04-27T23:15:56.790Z,3.98
2019-04-27T23:18:26.058Z,4.00
2019-04-27T23:20:55.513Z,4.10
2019-04-27T23:23:24.747Z,3.70
2019-04-27T23:25:54.055Z,3.77
2019-04-27T23:28:23.379Z,4.00
2019-04-27T23:31:10.842Z,3.30
2019-04-27T23:33:42.372Z,3.62
2019-04-27T23:36:11.871Z,4.28
2019-04-27T23:38:41.384Z,3.10
2019-04-27T23:41:11.598Z,3.20
2019-04-27T23:43:42.230Z,4.28
2019-04-27T23:46:11.672Z,3.67
2019-04-27T23:48:41.989Z,3.27
2019-04-27T23:51:30.606Z,3.60
2019-04-27T23:54:01.571Z,3.25
2019-04-27T23:56:31.806Z,3.92
2019-04-27T23:59:01.373Z,3.50
